createdAt,value
2023-01-13T00:01:15.960Z,7.06
2023-01-13T00:03:42.964Z,6.98
2023-01-13T00:06:12.950Z,7.00
2023-01-13T00:08:39.452Z,7.10
2023-01-13T00:11:07.083Z,7.26
2023-01-13T00:13:33.557Z,7.28
2023-01-13T00:16:02.120Z,7.59
2023-01-13T00:18:28.792Z,7.51
2023-01-13T00:21:07.028Z,7.61
2023-01-13T00:23:34.841Z,7.68
2023-01-13T00:26:04.458Z,7.96
2023-01-13T00:28:31.048Z,8.16
2023-01-13T00:31:04.931Z,8.36
2023-01-13T00:33:31.458Z,8.39
2023-01-13T00:36:02.018Z,8.44
2023-01-13T00:38:30.713Z,8.65
2023-01-13T00:40:57.102Z,8.66
2023-01-13T00:43:23.626Z,8.52
2023-01-13T00:45:50.205Z,8.74
2023-01-13T00:48:17.098Z,8.84
2023-01-13T00:50:43.689Z,8.32
2023-01-13T00:53:10.193Z,8.48
2023-01-13T00:55:36.700Z,8.60
2023-01-13T00:58:03.169Z,8.63
2023-01-13T01:00:30.820Z,8.69
2023-01-13T01:02:57.593Z,8.21
2023-01-13T01:05:24.185Z,8.11
2023-01-13T01:07:50.770Z,8.09
2023-01-13T01:10:17.661Z,7.99
2023-01-13T01:12:44.239Z,7.81
2023-01-13T01:15:11.229Z,7.82
2023-01-13T01:17:37.688Z,7.87
2023-01-13T01:20:05.025Z,7.85
2023-01-13T01:22:31.656Z,7.91
2023-01-13T01:24:58.122Z,8.01
2023-01-13T01:27:24.620Z,8.05
2023-01-13T01:29:51.172Z,8.12
2023-01-13T01:32:17.678Z,8.20
2023-01-13T01:34:44.164Z,8.39
2023-01-13T01:37:10.635Z,8.51
2023-01-13T01:39:37.114Z,8.36
2023-01-13T01:42:03.773Z,8.47
2023-01-13T01:44:42.581Z,8.07
2023-01-13T01:47:10.885Z,8.11
2023-01-13T01:49:38.755Z,8.33
2023-01-13T01:52:14.966Z,8.41
2023-01-13T01:55:06.294Z,8.30
2023-01-13T01:57:37.303Z,8.03
2023-01-13T02:00:04.590Z,8.20
2023-01-13T02:02:31.216Z,8.24
2023-01-13T02:04:59.172Z,8.19
2023-01-13T02:07:31.050Z,8.07
2023-01-13T02:09:59.898Z,7.93
2023-01-13T02:12:27.126Z,7.82
2023-01-13T02:14:53.605Z,7.91
2023-01-13T02:17:38.404Z,7.70
2023-01-13T02:20:13.636Z,7.63
2023-01-13T02:23:09.600Z,7.70
2023-01-13T02:25:53.897Z,7.72
2023-01-13T02:28:40.454Z,7.87
2023-01-13T02:31:09.593Z,7.76
2023-01-13T02:33:47.699Z,7.81
2023-01-13T02:36:34.789Z,7.75
2023-01-13T02:39:08.791Z,7.73
2023-01-13T02:41:41.078Z,7.87
2023-01-13T02:44:09.631Z,7.89
2023-01-13T02:46:54.640Z,7.86
2023-01-13T02:49:34.824Z,7.88
2023-01-13T02:52:12.981Z,7.97
2023-01-13T02:54:42.304Z,7.90
2023-01-13T02:57:10.345Z,7.99
2023-01-13T02:59:37.618Z,8.03
2023-01-13T03:02:04.530Z,8.04
2023-01-13T03:04:49.557Z,7.96
2023-01-13T03:07:54.214Z,7.96
2023-01-13T03:10:44.185Z,8.07
2023-01-13T03:13:19.765Z,8.23
2023-01-13T03:16:12.330Z,8.08
2023-01-13T03:18:42.993Z,8.22
2023-01-13T03:21:24.553Z,8.30
2023-01-13T03:23:57.529Z,8.30
2023-01-13T03:26:50.285Z,8.11
2023-01-13T03:29:19.773Z,8.12
2023-01-13T03:31:58.013Z,8.11
2023-01-13T03:34:30.302Z,8.05
2023-01-13T03:36:57.962Z,8.10
2023-01-13T03:39:36.158Z,8.25
2023-01-13T03:42:07.606Z,8.19
2023-01-13T03:44:38.737Z,8.09
2023-01-13T03:47:30.037Z,7.91
2023-01-13T03:50:06.825Z,7.77
2023-01-13T03:52:36.687Z,7.70
2023-01-13T03:55:26.117Z,7.87
2023-01-13T03:57:56.223Z,8.05
2023-01-13T04:00:26.156Z,7.98
2023-01-13T04:03:24.082Z,7.76
2023-01-13T04:05:53.909Z,7.83
2023-01-13T04:08:25.634Z,7.89
2023-01-13T04:11:12.134Z,8.10
2023-01-13T04:13:40.689Z,8.13
2023-01-13T04:16:08.476Z,8.10
2023-01-13T04:18:37.687Z,7.92
2023-01-13T04:21:07.295Z,8.05
2023-01-13T04:23:33.900Z,7.81
2023-01-13T04:26:00.409Z,7.78
2023-01-13T04:28:26.938Z,7.73
2023-01-13T04:30:53.516Z,7.69
2023-01-13T04:33:20.212Z,7.61
2023-01-13T04:35:47.623Z,7.48
2023-01-13T04:38:17.673Z,7.59
2023-01-13T04:40:44.837Z,7.61
2023-01-13T04:43:11.984Z,7.45
2023-01-13T04:45:38.852Z,7.38
2023-01-13T04:48:05.708Z,7.24
2023-01-13T04:50:32.320Z,7.26
2023-01-13T04:52:58.907Z,7.00
2023-01-13T04:55:25.453Z,7.07
2023-01-13T04:57:52.139Z,7.19
2023-01-13T05:00:20.819Z,7.06
2023-01-13T05:02:50.177Z,7.05
2023-01-13T05:05:16.748Z,7.14
2023-01-13T05:07:43.341Z,7.17
2023-01-13T05:10:10.481Z,7.30
2023-01-13T05:12:37.632Z,7.28
2023-01-13T05:15:06.765Z,7.18
2023-01-13T05:17:33.469Z,7.04
2023-01-13T05:19:59.963Z,7.03
2023-01-13T05:22:26.525Z,6.97
2023-01-13T05:24:53.015Z,7.11
2023-01-13T05:27:19.606Z,7.01
2023-01-13T05:29:46.101Z,6.95
2023-01-13T05:32:12.590Z,6.83
2023-01-13T05:34:39.102Z,7.00
2023-01-13T05:37:05.722Z,6.94
2023-01-13T05:39:33.353Z,7.02
2023-01-13T05:41:59.867Z,6.90
2023-01-13T05:44:26.367Z,6.84
2023-01-13T05:46:53.037Z,6.85
2023-01-13T05:49:19.550Z,6.89
2023-01-13T05:51:46.059Z,6.92
2023-01-13T05:54:12.545Z,6.79
2023-01-13T05:56:39.013Z,6.82
2023-01-13T05:59:05.548Z,6.79
2023-01-13T06:01:32.066Z,6.74
2023-01-13T06:03:58.678Z,6.64
2023-01-13T06:06:25.162Z,6.76
2023-01-13T06:08:51.713Z,6.83
2023-01-13T06:11:19.385Z,6.83
2023-01-13T06:13:46.388Z,6.91
2023-01-13T06:16:12.970Z,7.01
2023-01-13T06:18:39.463Z,7.03
2023-01-13T06:21:06.167Z,7.06
2023-01-13T06:23:32.696Z,6.81
2023-01-13T06:26:05.913Z,6.62
2023-01-13T06:28:32.487Z,6.53
2023-01-13T06:31:01.077Z,6.60
2023-01-13T06:33:35.332Z,6.72
2023-01-13T06:36:06.246Z,6.69
2023-01-13T06:38:34.607Z,6.68
2023-01-13T06:41:01.071Z,6.75
2023-01-13T06:43:27.843Z,6.93
2023-01-13T06:45:55.711Z,6.80
2023-01-13T06:48:24.438Z,6.87
2023-01-13T06:50:51.149Z,6.79
2023-01-13T06:53:17.928Z,6.99
2023-01-13T06:55:44.421Z,7.03
2023-01-13T06:58:11.052Z,6.87
2023-01-13T07:00:37.693Z,6.78
2023-01-13T07:03:12.176Z,6.84
2023-01-13T07:05:39.295Z,6.76
2023-01-13T07:08:06.812Z,6.89
2023-01-13T07:10:34.105Z,6.84
2023-01-13T07:13:04.712Z,6.65
2023-01-13T07:15:31.394Z,6.73
2023-01-13T07:17:59.182Z,6.59
2023-01-13T07:20:25.746Z,6.78
2023-01-13T07:22:57.562Z,6.97
2023-01-13T07:25:24.134Z,6.86
2023-01-13T07:27:50.869Z,6.86
2023-01-13T07:30:17.755Z,6.77
2023-01-13T07:32:44.269Z,6.83
2023-01-13T07:35:10.752Z,6.71
2023-01-13T07:37:37.787Z,6.68
2023-01-13T07:40:04.983Z,6.88
2023-01-13T07:42:31.536Z,6.73
2023-01-13T07:44:58.058Z,6.83
2023-01-13T07:47:24.539Z,6.78
2023-01-13T07:49:51.046Z,6.65
2023-01-13T07:52:17.732Z,6.66
2023-01-13T07:54:44.238Z,6.77
2023-01-13T07:57:10.808Z,6.66
2023-01-13T07:59:37.380Z,6.75
2023-01-13T08:02:04.107Z,6.74
2023-01-13T08:04:30.911Z,6.94
2023-01-13T08:06:57.430Z,6.80
2023-01-13T08:09:23.994Z,6.81
2023-01-13T08:11:54.361Z,6.91
2023-01-13T08:14:22.325Z,6.95
2023-01-13T08:16:49.030Z,6.90
2023-01-13T08:19:15.701Z,6.73
2023-01-13T08:21:42.144Z,6.78
2023-01-13T08:24:10.274Z,6.83
2023-01-13T08:26:36.734Z,6.95
2023-01-13T08:29:03.252Z,6.95
2023-01-13T08:31:29.804Z,6.81
2023-01-13T08:33:58.530Z,7.03
2023-01-13T08:36:25.244Z,7.20
2023-01-13T08:38:52.079Z,7.22
2023-01-13T08:41:18.608Z,7.31
2023-01-13T08:43:45.180Z,7.42
2023-01-13T08:46:11.837Z,7.28
2023-01-13T08:48:38.656Z,7.34
2023-01-13T08:51:07.696Z,7.27
2023-01-13T08:53:34.327Z,7.30
2023-01-13T08:56:00.975Z,7.21
2023-01-13T08:58:27.455Z,7.21
2023-01-13T09:00:53.978Z,7.11
2023-01-13T09:03:20.563Z,7.23
2023-01-13T09:05:47.087Z,7.01
2023-01-13T09:08:13.615Z,7.07
2023-01-13T09:10:45.130Z,7.00
2023-01-13T09:13:13.556Z,7.11
2023-01-13T09:15:45.288Z,7.11
2023-01-13T09:18:12.403Z,7.06
2023-01-13T09:20:39.957Z,7.24
2023-01-13T09:23:10.096Z,7.40
2023-01-13T09:25:36.899Z,7.58
2023-01-13T09:28:06.149Z,7.44
2023-01-13T09:30:32.651Z,7.47
2023-01-13T09:32:59.726Z,7.79
2023-01-13T09:35:26.330Z,7.88
2023-01-13T09:37:52.915Z,8.10
2023-01-13T09:40:20.751Z,8.42
2023-01-13T09:43:18.144Z,8.71
2023-01-13T09:45:48.245Z,9.14
2023-01-13T09:48:30.581Z,9.53
2023-01-13T09:51:10.853Z,9.70
2023-01-13T09:53:38.901Z,9.35
2023-01-13T09:56:10.573Z,8.81
2023-01-13T09:58:37.228Z,8.51
2023-01-13T10:01:29.982Z,8.41
2023-01-13T10:03:56.474Z,8.44
2023-01-13T10:06:41.152Z,8.42
2023-01-13T10:09:13.805Z,8.61
2023-01-13T10:11:42.426Z,8.64
2023-01-13T10:14:24.830Z,8.65
2023-01-13T10:17:14.973Z,8.85
2023-01-13T10:19:46.515Z,8.98
2023-01-13T10:22:28.179Z,9.29
2023-01-13T10:25:06.936Z,9.31
2023-01-13T10:27:37.740Z,9.37
2023-01-13T10:30:34.668Z,9.11
2023-01-13T10:33:02.960Z,9.08
2023-01-13T10:35:55.777Z,9.50
2023-01-13T10:38:25.076Z,9.57
2023-01-13T10:40:57.323Z,9.60
2023-01-13T10:43:24.240Z,9.61
2023-01-13T10:46:02.591Z,9.49
2023-01-13T10:48:34.760Z,9.27
2023-01-13T10:51:23.456Z,9.18
2023-01-13T10:54:01.851Z,9.29
2023-01-13T10:56:32.219Z,9.78
2023-01-13T10:59:13.894Z,9.80
2023-01-13T11:01:56.726Z,10.01
2023-01-13T11:04:36.780Z,9.73
2023-01-13T11:07:04.332Z,9.60
2023-01-13T11:09:32.310Z,9.55
2023-01-13T11:11:59.265Z,9.52
2023-01-13T11:14:37.568Z,9.63
2023-01-13T11:17:32.478Z,9.99
2023-01-13T11:20:11.266Z,9.72
2023-01-13T11:22:58.503Z,9.87
2023-01-13T11:25:27.795Z,10.03
2023-01-13T11:28:01.057Z,9.66
2023-01-13T11:30:38.862Z,9.37
2023-01-13T11:33:14.397Z,9.65
2023-01-13T11:35:45.910Z,9.54
2023-01-13T11:38:25.930Z,9.55
2023-01-13T11:40:52.612Z,9.99
2023-01-13T11:43:42.146Z,10.26
2023-01-13T11:46:09.923Z,10.06
2023-01-13T11:48:40.806Z,10.12
2023-01-13T11:51:10.171Z,10.09
2023-01-13T11:54:03.510Z,9.97
2023-01-13T11:57:02.284Z,9.92
2023-01-13T11:59:39.726Z,9.96
2023-01-13T12:02:27.705Z,10.28
2023-01-13T12:05:02.762Z,10.56
2023-01-13T12:08:20.477Z,10.60
2023-01-13T12:11:05.648Z,10.14
2023-01-13T12:13:43.918Z,10.14
2023-01-13T12:16:15.287Z,10.23
2023-01-13T12:19:00.044Z,10.10
2023-01-13T12:21:32.633Z,10.30
2023-01-13T12:24:05.909Z,10.40
2023-01-13T12:26:37.396Z,10.52
2023-01-13T12:29:13.188Z,10.66
2023-01-13T12:31:41.793Z,10.44
2023-01-13T12:34:30.277Z,10.37
2023-01-13T12:37:10.080Z,10.29
2023-01-13T12:39:42.505Z,10.15
2023-01-13T12:42:18.822Z,9.78
2023-01-13T12:45:10.076Z,9.72
2023-01-13T12:47:40.139Z,9.81
2023-01-13T12:50:40.434Z,10.23
2023-01-13T12:53:25.189Z,10.42
2023-01-13T12:55:52.024Z,10.37
2023-01-13T12:58:26.511Z,10.68
2023-01-13T13:00:59.180Z,10.86
2023-01-13T13:03:34.415Z,11.08
2023-01-13T13:06:07.053Z,11.21
2023-01-13T13:08:48.517Z,11.09
2023-01-13T13:11:15.057Z,11.21
2023-01-13T13:13:47.126Z,10.89
2023-01-13T13:16:25.953Z,10.87
2023-01-13T13:18:53.540Z,10.60
2023-01-13T13:21:20.164Z,10.76
2023-01-13T13:23:52.907Z,10.48
2023-01-13T13:26:19.316Z,10.57
2023-01-13T13:29:12.045Z,10.73
2023-01-13T13:31:44.497Z,10.92
2023-01-13T13:34:43.384Z,10.92
2023-01-13T13:38:01.098Z,11.20
2023-01-13T13:40:32.658Z,11.19
2023-01-13T13:42:59.368Z,10.95
2023-01-13T13:45:28.759Z,10.90
2023-01-13T13:47:55.328Z,10.98
2023-01-13T13:50:21.949Z,10.91
2023-01-13T13:53:09.059Z,10.81
2023-01-13T13:55:36.669Z,10.62
2023-01-13T13:58:03.152Z,10.42
2023-01-13T14:00:32.102Z,10.24
2023-01-13T14:03:18.953Z,10.17
2023-01-13T14:06:00.051Z,9.94
2023-01-13T14:08:33.022Z,10.19
2023-01-13T14:10:59.615Z,10.23
2023-01-13T14:13:31.205Z,10.30
2023-01-13T14:16:03.304Z,10.11
2023-01-13T14:18:33.868Z,10.14
2023-01-13T14:21:16.614Z,10.07
2023-01-13T14:23:50.870Z,10.22
2023-01-13T14:26:17.789Z,10.29
2023-01-13T14:28:44.585Z,10.33
2023-01-13T14:31:13.250Z,10.06
2023-01-13T14:33:43.516Z,10.23
2023-01-13T14:36:14.548Z,10.29
2023-01-13T14:38:42.394Z,10.30
2023-01-13T14:41:11.769Z,10.29
2023-01-13T14:43:43.267Z,10.26
2023-01-13T14:46:09.850Z,10.25
2023-01-13T14:48:36.651Z,10.03
2023-01-13T14:51:05.901Z,9.95
2023-01-13T14:53:35.390Z,10.09
2023-01-13T14:56:38.835Z,10.24
2023-01-13T14:59:42.512Z,10.31
2023-01-13T15:02:27.770Z,10.15
2023-01-13T15:04:55.082Z,10.25
2023-01-13T15:07:26.749Z,10.31
2023-01-13T15:09:55.770Z,10.11
2023-01-13T15:12:34.172Z,9.83
2023-01-13T15:15:03.691Z,9.64
2023-01-13T15:17:30.445Z,9.56
2023-01-13T15:19:56.929Z,9.83
2023-01-13T15:22:23.518Z,10.02
2023-01-13T15:24:49.985Z,9.90
2023-01-13T15:27:22.539Z,9.87
2023-01-13T15:29:49.269Z,9.71
2023-01-13T15:32:20.556Z,9.41
2023-01-13T15:34:47.715Z,9.55
2023-01-13T15:37:15.561Z,9.38
2023-01-13T15:39:42.007Z,9.43
2023-01-13T15:42:12.232Z,9.61
2023-01-13T15:44:38.628Z,9.78
2023-01-13T15:47:06.997Z,9.52
2023-01-13T15:49:39.971Z,9.45
2023-01-13T15:52:33.100Z,9.51
2023-01-13T15:54:59.672Z,9.41
2023-01-13T15:57:28.229Z,9.18
2023-01-13T15:59:57.993Z,9.24
2023-01-13T16:02:24.989Z,9.26
2023-01-13T16:04:52.201Z,9.32
2023-01-13T16:07:20.802Z,9.23
2023-01-13T16:09:47.419Z,9.37
2023-01-13T16:12:14.005Z,9.18
2023-01-13T16:14:40.838Z,9.17
2023-01-13T16:17:26.768Z,9.17
2023-01-13T16:19:53.302Z,9.21
2023-01-13T16:22:19.852Z,9.29
2023-01-13T16:24:46.485Z,9.32
2023-01-13T16:27:13.411Z,9.40
2023-01-13T16:29:40.387Z,9.38
2023-01-13T16:32:06.866Z,9.45
2023-01-13T16:34:35.214Z,9.34
2023-01-13T16:37:09.427Z,9.29
2023-01-13T16:39:35.964Z,9.53
2023-01-13T16:42:04.244Z,9.54
2023-01-13T16:44:30.790Z,9.48
2023-01-13T16:46:57.364Z,9.52
2023-01-13T16:49:23.939Z,9.60
2023-01-13T16:51:50.468Z,9.66
2023-01-13T16:54:16.974Z,9.67
2023-01-13T16:56:45.724Z,9.53
2023-01-13T16:59:13.521Z,9.52
2023-01-13T17:01:41.599Z,9.58
2023-01-13T17:04:14.925Z,9.30
2023-01-13T17:06:44.851Z,9.45
2023-01-13T17:09:16.737Z,9.53
2023-01-13T17:11:43.668Z,9.44
2023-01-13T17:14:18.983Z,9.35
2023-01-13T17:16:46.381Z,9.36
2023-01-13T17:19:13.781Z,9.20
2023-01-13T17:21:40.416Z,9.19
2023-01-13T17:24:07.157Z,9.04
2023-01-13T17:26:41.698Z,9.01
2023-01-13T17:29:20.889Z,9.11
2023-01-13T17:31:48.263Z,9.23
2023-01-13T17:34:14.977Z,9.22
2023-01-13T17:36:41.549Z,8.85
2023-01-13T17:39:08.179Z,8.93
2023-01-13T17:41:34.700Z,8.75
2023-01-13T17:44:01.257Z,8.77
2023-01-13T17:46:27.798Z,8.80
2023-01-13T17:48:54.782Z,8.67
2023-01-13T17:51:22.245Z,8.73
2023-01-13T17:53:48.791Z,8.75
2023-01-13T17:56:15.394Z,8.87
2023-01-13T17:58:42.059Z,8.95
2023-01-13T18:01:16.492Z,9.06
2023-01-13T18:03:43.407Z,8.91
2023-01-13T18:06:18.614Z,8.77
2023-01-13T18:08:45.928Z,8.60
2023-01-13T18:11:12.955Z,8.77
2023-01-13T18:13:40.452Z,8.88
2023-01-13T18:16:09.432Z,8.84
2023-01-13T18:18:35.984Z,8.78
2023-01-13T18:21:03.636Z,8.80
2023-01-13T18:23:30.190Z,8.56
2023-01-13T18:25:56.674Z,8.35
2023-01-13T18:28:23.303Z,8.28
2023-01-13T18:30:49.907Z,8.27
2023-01-13T18:33:17.062Z,8.16
2023-01-13T18:35:43.604Z,8.11
2023-01-13T18:38:15.916Z,8.16
2023-01-13T18:40:46.695Z,8.14
2023-01-13T18:43:13.502Z,8.05
2023-01-13T18:45:40.104Z,8.12
2023-01-13T18:48:06.979Z,8.06
2023-01-13T18:50:33.659Z,8.23
2023-01-13T18:53:01.224Z,8.43
2023-01-13T18:55:28.029Z,8.55
2023-01-13T18:57:55.598Z,8.77
2023-01-13T19:00:22.870Z,8.96
2023-01-13T19:02:49.900Z,9.06
2023-01-13T19:05:16.662Z,8.93
2023-01-13T19:07:43.988Z,8.99
2023-01-13T19:10:11.398Z,9.02
2023-01-13T19:12:37.981Z,8.92
2023-01-13T19:15:04.874Z,9.19
2023-01-13T19:17:33.065Z,9.11
2023-01-13T19:20:03.744Z,9.28
2023-01-13T19:22:32.931Z,9.29
2023-01-13T19:25:00.301Z,9.34
2023-01-13T19:27:27.512Z,9.20
2023-01-13T19:29:54.391Z,9.05
2023-01-13T19:32:24.283Z,9.21
2023-01-13T19:34:51.011Z,9.36
2023-01-13T19:37:18.701Z,9.30
2023-01-13T19:39:45.337Z,9.23
2023-01-13T19:42:12.180Z,9.23
2023-01-13T19:44:38.739Z,8.89
2023-01-13T19:47:05.369Z,8.58
2023-01-13T19:49:32.833Z,8.28
2023-01-13T19:51:59.762Z,8.19
2023-01-13T19:54:26.568Z,8.24
2023-01-13T19:56:53.099Z,8.17
2023-01-13T19:59:19.592Z,8.24
2023-01-13T20:01:46.159Z,8.05
2023-01-13T20:04:12.697Z,8.01
2023-01-13T20:06:39.707Z,8.10
2023-01-13T20:09:06.740Z,8.10
2023-01-13T20:11:33.245Z,7.98
2023-01-13T20:14:02.800Z,8.02
2023-01-13T20:16:29.944Z,7.92
2023-01-13T20:18:56.678Z,7.89
2023-01-13T20:21:23.237Z,7.94
2023-01-13T20:23:51.360Z,7.85
2023-01-13T20:26:18.686Z,7.79
2023-01-13T20:28:46.497Z,7.91
2023-01-13T20:31:14.019Z,7.79
2023-01-13T20:33:41.051Z,7.80
2023-01-13T20:36:08.426Z,7.63
2023-01-13T20:38:34.889Z,7.62
2023-01-13T20:41:01.693Z,7.65
2023-01-13T20:43:28.255Z,7.74
2023-01-13T20:45:54.788Z,7.81
2023-01-13T20:48:21.815Z,7.98
2023-01-13T20:50:53.358Z,7.95
2023-01-13T20:53:19.850Z,8.03
2023-01-13T20:55:46.328Z,8.16
2023-01-13T20:58:12.789Z,8.19
2023-01-13T21:00:39.438Z,8.22
2023-01-13T21:03:06.081Z,8.26
2023-01-13T21:05:35.660Z,8.25
2023-01-13T21:08:02.389Z,8.16
2023-01-13T21:10:29.434Z,8.24
2023-01-13T21:12:56.029Z,8.30
2023-01-13T21:15:22.793Z,8.31
2023-01-13T21:17:50.936Z,8.33
2023-01-13T21:20:17.485Z,8.31
2023-01-13T21:22:45.754Z,8.19
2023-01-13T21:25:12.587Z,8.20
2023-01-13T21:27:39.056Z,8.14
2023-01-13T21:30:06.561Z,8.32
2023-01-13T21:32:33.187Z,8.26
2023-01-13T21:34:59.788Z,7.95
2023-01-13T21:37:26.306Z,7.77
2023-01-13T21:39:52.928Z,7.93
2023-01-13T21:42:19.519Z,7.89
2023-01-13T21:44:46.154Z,7.83
2023-01-13T21:47:17.296Z,7.97
2023-01-13T21:49:43.923Z,7.93
2023-01-13T21:52:11.959Z,8.01
2023-01-13T21:54:38.640Z,8.10
2023-01-13T21:57:05.237Z,8.30
2023-01-13T21:59:31.740Z,8.41
2023-01-13T22:02:23.998Z,8.47
2023-01-13T22:04:44.919Z,8.52
2023-01-13T22:07:11.356Z,8.29
2023-01-13T22:09:38.181Z,8.34
2023-01-13T22:12:05.048Z,8.20
2023-01-13T22:14:31.931Z,8.18
2023-01-13T22:16:58.545Z,8.29
2023-01-13T22:19:25.175Z,8.30
2023-01-13T22:21:51.839Z,8.29
2023-01-13T22:24:18.376Z,8.18
2023-01-13T22:26:45.250Z,8.44
2023-01-13T22:29:11.876Z,8.08
2023-01-13T22:31:38.486Z,8.19
2023-01-13T22:34:05.106Z,8.25
2023-01-13T22:36:31.785Z,8.07
2023-01-13T22:38:58.505Z,8.08
2023-01-13T22:41:25.074Z,8.03
2023-01-13T22:43:51.567Z,8.08
2023-01-13T22:46:18.139Z,8.25
2023-01-13T22:48:45.763Z,8.11
2023-01-13T22:51:16.131Z,8.16
2023-01-13T22:53:43.152Z,8.23
2023-01-13T22:56:21.379Z,8.13
2023-01-13T22:58:48.325Z,8.20
2023-01-13T23:01:16.652Z,8.22
2023-01-13T23:03:43.459Z,8.23
2023-01-13T23:06:10.591Z,8.06
2023-01-13T23:08:37.772Z,8.14
2023-01-13T23:11:08.887Z,8.12
2023-01-13T23:13:36.668Z,8.16
2023-01-13T23:16:08.057Z,8.39
2023-01-13T23:18:34.963Z,8.57
2023-01-13T23:21:10.817Z,8.29
2023-01-13T23:23:38.004Z,8.17
2023-01-13T23:26:06.063Z,8.22
2023-01-13T23:28:34.206Z,8.31
2023-01-13T23:31:01.032Z,8.36
2023-01-13T23:33:27.715Z,8.22
2023-01-13T23:36:00.886Z,8.08
2023-01-13T23:38:28.760Z,7.87
2023-01-13T23:40:55.634Z,7.67
2023-01-13T23:43:25.794Z,7.34
2023-01-13T23:45:53.389Z,7.48
2023-01-13T23:48:19.884Z,7.40
2023-01-13T23:50:56.960Z,7.38
2023-01-13T23:53:23.642Z,7.17
2023-01-13T23:55:56.606Z,7.14
2023-01-13T23:58:23.239Z,6.89
